Time;durP1;ratioP1;P1;durP2;ratioP2;P2;SDS_P1;SDS_P2;PMS_P1;PMS_P2;Temp;Humidity;BMP_temperature;BMP_pressure;BME280_temperature;BME280_humidity;BME280_pressure;Samples;Min_cycle;Max_cycle;Signal;HPM_P1;HPM_P2
2022/06/25 00:03:03;;;;;;;9.60;2.90;;;;;;;19.52;58.81;99685.52;105129;1274;59753;-62
2022/06/25 00:05:51;;;;;;;8.00;3.20;;;;;;;19.48;58.86;99688.52;105215;1274;61281;-62
2022/06/25 00:08:39;;;;;;;7.20;2.80;;;;;;;19.44;58.88;99690.73;104932;1274;72862;-61
2022/06/25 00:14:33;;;;;;;7.50;3.30;;;;;;;19.41;59.23;99695.13;104828;1274;73625;-65
2022/06/25 00:17:21;;;;;;;9.40;3.70;;;;;;;19.38;59.38;99697.20;104714;1274;59788;-63
2022/06/25 00:20:10;;;;;;;7.30;3.30;;;;;;;19.35;59.36;99696.70;104854;1273;60767;-63
2022/06/25 00:22:58;;;;;;;11.30;3.50;;;;;;;19.32;59.60;99692.27;104824;1274;75009;-62
2022/06/25 00:25:46;;;;;;;8.20;3.60;;;;;;;19.28;59.67;99695.70;104815;1272;68153;-62
2022/06/25 00:28:34;;;;;;;9.70;3.50;;;;;;;19.26;59.70;99696.95;104761;1274;74316;-62
2022/06/25 00:31:24;;;;;;;6.70;3.30;;;;;;;19.22;59.88;99695.56;104871;1274;59550;-63
2022/06/25 00:34:12;;;;;;;6.80;3.20;;;;;;;19.19;59.97;99695.59;104866;1274;62010;-64
2022/06/25 00:37:01;;;;;;;7.60;3.40;;;;;;;19.15;60.20;99694.96;104876;1273;74548;-65
2022/06/25 00:39:50;;;;;;;8.40;3.40;;;;;;;19.10;60.40;99698.41;104847;1271;68361;-68
2022/06/25 00:42:50;;;;;;;9.80;3.60;;;;;;;19.07;60.35;99698.48;104888;1274;72758;-63
2022/06/25 00:45:43;;;;;;;6.80;3.10;;;;;;;19.02;60.52;99694.71;105152;1274;59778;-63
2022/06/25 00:48:31;;;;;;;9.50;3.40;;;;;;;18.96;60.61;99696.11;104934;1274;59631;-62
2022/06/25 00:51:25;;;;;;;10.10;3.70;;;;;;;18.83;61.07;99693.33;104793;1274;73477;-64
2022/06/25 00:54:16;;;;;;;8.60;3.90;;;;;;;18.85;61.22;99704.20;104914;1274;68416;-63
2022/06/25 00:57:07;;;;;;;6.90;3.50;;;;;;;18.82;61.55;99706.57;105077;1274;71990;-63
2022/06/25 01:00:06;;;;;;;7.60;3.50;;;;;;;18.79;61.62;99708.17;104981;1274;59768;-63
2022/06/25 01:02:54;;;;;;;8.40;3.40;;;;;;;18.75;61.83;99708.14;105012;1274;60465;-65
2022/06/25 01:05:41;;;;;;;8.10;3.30;;;;;;;18.71;61.87;99708.79;104991;1274;74514;-62
2022/06/25 01:08:33;;;;;;;8.00;3.60;;;;;;;18.66;62.17;99708.61;105126;1273;67831;-62
2022/06/25 01:11:22;;;;;;;9.90;4.20;;;;;;;18.62;62.41;99711.64;104825;1274;74475;-62
2022/06/25 01:14:11;;;;;;;12.00;3.70;;;;;;;18.58;62.59;99708.69;104927;1274;59806;-61
2022/06/25 01:17:01;;;;;;;9.80;4.00;;;;;;;18.53;62.79;99706.19;104712;1273;61348;-62
2022/06/25 01:19:50;;;;;;;9.30;4.00;;;;;;;18.50;62.94;99710.89;104761;1273;75029;-62
2022/06/25 01:22:38;;;;;;;8.90;4.40;;;;;;;18.44;63.29;99706.33;104818;1273;68852;-63
2022/06/25 01:25:36;;;;;;;9.10;4.20;;;;;;;18.39;63.75;99712.31;104879;1274;74341;-65
2022/06/25 01:28:26;;;;;;;10.10;3.70;;;;;;;18.34;64.07;99715.60;104714;1274;59740;-63
2022/06/25 01:31:14;;;;;;;7.60;3.60;;;;;;;18.30;64.16;99712.06;105047;1274;59703;-64
2022/06/25 01:34:03;;;;;;;11.00;4.00;;;;;;;18.27;64.46;99714.23;104955;1274;73655;-63
2022/06/25 01:36:51;;;;;;;7.90;3.90;;;;;;;18.22;64.74;99718.88;105002;1273;68486;-65
2022/06/25 01:39:39;;;;;;;11.30;3.70;;;;;;;18.17;65.00;99718.08;105015;1272;72629;-64
2022/06/25 01:45:38;;;;;;;7.70;3.90;;;;;;;18.05;65.96;99719.78;105163;1274;59664;-62
2022/06/25 01:48:26;;;;;;;8.50;3.60;;;;;;;18.00;66.05;99723.20;104773;1273;74151;-63
2022/06/25 01:51:15;;;;;;;9.50;4.10;;;;;;;17.93;66.30;99722.75;104902;1274;69632;-64
2022/06/25 01:54:03;;;;;;;8.10;3.90;;;;;;;17.87;66.70;99721.42;104826;1274;73879;-64
2022/06/25 01:56:51;;;;;;;9.30;4.50;;;;;;;17.82;67.25;99721.14;104873;1274;60747;-63
2022/06/25 01:59:39;;;;;;;8.40;4.10;;;;;;;17.78;67.37;99721.37;104933;1274;60568;-63
2022/06/25 02:02:28;;;;;;;8.80;3.60;;;;;;;17.76;67.40;99717.54;105023;1274;72982;-63
2022/06/25 02:05:56;;;;;;;9.10;3.80;;;;;;;17.73;67.92;99717.88;104940;1273;68347;-63
2022/06/25 02:08:37;;;;;;;8.50;4.10;;;;;;;17.68;68.34;99726.23;105066;1273;71550;-65
2022/06/25 02:11:25;;;;;;;8.80;4.00;;;;;;;17.65;68.35;99726.13;104911;1273;59663;-65
2022/06/25 02:14:13;;;;;;;8.30;3.90;;;;;;;17.61;68.48;99725.16;104836;1274;59710;-64
2022/06/25 02:17:02;;;;;;;9.60;4.30;;;;;;;17.54;68.68;99728.75;104740;1274;74713;-62
2022/06/25 02:19:50;;;;;;;9.50;3.80;;;;;;;17.49;69.25;99730.92;104767;1272;68909;-62
2022/06/25 02:22:37;;;;;;;9.30;4.00;;;;;;;17.45;69.58;99736.98;104816;1274;73359;-62
2022/06/25 02:25:26;;;;;;;9.50;4.10;;;;;;;17.44;69.59;99739.40;104810;1274;61284;-62
2022/06/25 02:28:16;;;;;;;9.30;4.10;;;;;;;17.42;69.67;99735.84;104806;1274;62050;-67
2022/06/25 02:31:06;;;;;;;10.00;4.10;;;;;;;17.40;69.65;99735.23;104777;1274;74838;-65
2022/06/25 02:33:54;;;;;;;8.40;3.70;;;;;;;17.38;69.94;99737.06;104856;1274;68446;-66
2022/06/25 02:36:43;;;;;;;9.80;3.80;;;;;;;17.35;70.13;99736.09;104919;1274;74548;-64
2022/06/25 02:39:30;;;;;;;9.80;4.20;;;;;;;17.31;70.08;99735.09;104857;1274;59665;-63
2022/06/25 02:42:18;;;;;;;10.20;4.60;;;;;;;17.27;70.43;99737.89;104987;1274;60079;-63
2022/06/25 02:45:09;;;;;;;9.40;4.30;;;;;;;17.23;70.95;99734.16;104886;1274;73520;-64
2022/06/25 02:47:58;;;;;;;9.20;4.10;;;;;;;17.21;71.17;99732.29;104806;1274;68580;-60
2022/06/25 02:50:46;;;;;;;8.50;4.10;;;;;;;17.18;71.08;99735.77;104851;1274;74433;-63
2022/06/25 02:53:35;;;;;;;11.30;4.20;;;;;;;17.16;71.48;99734.17;104747;1274;59685;-64
2022/06/25 02:59:29;;;;;;;8.70;4.20;;;;;;;17.17;71.43;99730.73;104908;1274;73556;-63
2022/06/25 03:02:18;;;;;;;10.70;3.90;;;;;;;17.18;71.50;99729.83;104771;1274;67155;-63
2022/06/25 03:05:07;;;;;;;8.80;4.50;;;;;;;17.19;71.39;99734.40;105153;1274;73297;-62
2022/06/25 03:07:55;;;;;;;10.20;4.40;;;;;;;17.21;71.56;99736.19;105063;1271;59676;-62
2022/06/25 03:10:44;;;;;;;8.80;4.40;;;;;;;17.22;71.64;99738.06;104742;1273;59624;-62
2022/06/25 03:13:34;;;;;;;7.70;3.90;;;;;;;17.24;71.83;99739.13;104708;1274;72232;-63
2022/06/25 03:16:21;;;;;;;9.70;4.80;;;;;;;17.26;71.68;99738.02;104768;1273;68615;-63
2022/06/25 03:19:10;;;;;;;7.70;4.20;;;;;;;17.27;71.77;99740.38;104843;1274;73513;-65
2022/06/25 03:22:14;;;;;;;9.50;4.40;;;;;;;17.28;71.76;99740.73;104955;1274;61223;-64
2022/06/25 03:25:03;;;;;;;8.70;4.40;;;;;;;17.29;71.92;99738.12;104960;1274;60245;-64
2022/06/25 03:27:51;;;;;;;8.20;3.90;;;;;;;17.32;71.93;99739.13;105674;1274;73209;-65
2022/06/25 03:30:39;;;;;;;8.50;4.40;;;;;;;17.35;71.92;99738.98;105029;1274;68168;-65
2022/06/25 03:33:28;;;;;;;9.30;4.50;;;;;;;17.38;71.95;99738.06;104820;1274;73375;-65
2022/06/25 03:36:26;;;;;;;10.20;4.40;;;;;;;17.43;71.74;99737.48;104696;1274;59673;-64
2022/06/25 03:39:17;;;;;;;9.30;4.60;;;;;;;17.49;71.70;99735.95;104805;1274;60789;-65
2022/06/25 03:42:08;;;;;;;8.30;4.40;;;;;;;17.54;71.49;99734.79;104753;1274;73769;-65
2022/06/25 03:45:03;;;;;;;9.30;4.50;;;;;;;17.59;71.13;99738.95;104903;1274;68819;-65
2022/06/25 03:47:54;;;;;;;9.30;4.20;;;;;;;17.65;70.96;99738.70;104689;1274;71217;-66
2022/06/25 03:50:42;;;;;;;7.90;4.10;;;;;;;17.70;70.79;99740.40;104686;1275;59700;-64
2022/06/25 03:53:30;;;;;;;10.60;4.70;;;;;;;17.76;70.49;99742.29;104767;1273;62027;-63
2022/06/25 03:56:18;;;;;;;10.50;4.20;;;;;;;17.83;70.34;99745.02;105033;1274;72779;-64
2022/06/25 03:59:06;;;;;;;9.50;4.40;;;;;;;17.91;69.86;99743.50;104976;1274;70419;-66
2022/06/25 04:01:54;;;;;;;9.20;4.80;;;;;;;18.00;69.71;99752.32;104891;1274;74349;-65
2022/06/25 04:04:43;;;;;;;10.80;4.60;;;;;;;18.09;69.37;99749.76;104972;1273;59738;-66
2022/06/25 04:07:31;;;;;;;9.60;4.20;;;;;;;18.17;68.94;99751.52;104641;1274;60898;-64
2022/06/25 04:10:20;;;;;;;8.00;4.10;;;;;;;18.28;68.25;99754.36;104656;1274;73656;-66
2022/06/25 04:13:08;;;;;;;9.10;4.00;;;;;;;18.39;67.83;99752.52;105005;1273;68555;-70
2022/06/25 04:15:56;;;;;;;7.40;3.80;;;;;;;18.51;67.23;99754.90;104798;1277;73131;-66
2022/06/25 04:18:46;;;;;;;8.70;4.70;;;;;;;18.65;66.39;99754.73;104617;1274;59716;-68
2022/06/25 04:21:34;;;;;;;8.20;4.40;;;;;;;18.80;65.56;99756.08;104613;1274;62085;-68
2022/06/25 04:24:23;;;;;;;8.20;4.30;;;;;;;19.00;65.03;99759.28;104820;1276;74627;-68
2022/06/25 04:29:03;;;;;;;9.00;4.20;;;;;;;19.22;64.12;99762.49;104703;1273;68629;-66
2022/06/25 04:30:19;;;;;;;9.90;4.30;;;;;;;19.52;62.51;99762.21;104668;1273;73074;-68
2022/06/25 04:33:11;;;;;;;7.50;4.00;;;;;;;19.83;61.30;99763.66;104708;1273;59808;-65
2022/06/25 04:36:11;;;;;;;8.90;4.20;;;;;;;20.19;60.10;99767.86;104720;1273;62398;-72
2022/06/25 04:39:07;;;;;;;7.80;3.90;;;;;;;20.59;58.60;99772.55;104740;1274;73631;-71
2022/06/25 04:41:55;;;;;;;8.20;4.10;;;;;;;20.98;57.00;99768.21;104883;1273;68162;-68
2022/06/25 04:44:45;;;;;;;8.30;4.00;;;;;;;21.41;55.45;99764.80;104981;1273;74149;-69
2022/06/25 04:47:33;;;;;;;8.10;3.30;;;;;;;21.90;54.29;99762.41;104585;1276;59753;-70
2022/06/25 04:50:44;;;;;;;6.70;3.30;;;;;;;22.54;52.20;99762.52;104934;1273;60339;-68
2022/06/25 04:53:33;;;;;;;8.30;3.40;;;;;;;23.14;50.84;99767.27;104643;1273;72777;-73
2022/06/25 04:56:27;;;;;;;8.20;3.30;;;;;;;23.71;49.01;99768.25;104607;1274;67752;-69
2022/06/25 04:59:18;;;;;;;6.60;3.40;;;;;;;24.37;47.49;99769.33;104899;1274;73628;-69
2022/06/25 05:02:19;;;;;;;8.30;3.90;;;;;;;24.95;44.73;99769.33;104865;1274;59761;-69
2022/06/25 05:05:13;;;;;;;7.70;3.50;;;;;;;25.49;43.73;99773.07;104933;1274;59620;-69
2022/06/25 05:08:01;;;;;;;7.70;3.30;;;;;;;26.01;41.85;99773.91;104890;1274;73609;-69
2022/06/25 05:10:50;;;;;;;8.40;3.70;;;;;;;26.49;41.25;99780.62;104820;1274;66855;-70
2022/06/25 05:13:38;;;;;;;6.90;3.30;;;;;;;26.79;39.51;99781.64;104693;1274;73455;-70
2022/06/25 05:16:26;;;;;;;6.50;3.10;;;;;;;27.11;38.73;99781.98;105003;1274;59780;-70
2022/06/25 05:19:15;;;;;;;9.00;3.10;;;;;;;27.57;38.50;99783.35;104686;1274;61278;-67
2022/06/25 05:22:04;;;;;;;8.90;3.10;;;;;;;28.14;37.50;99780.39;104648;1274;406312;-69
2022/06/25 05:24:52;;;;;;;9.30;3.00;;;;;;;28.84;36.32;99779.87;104816;1274;67829;-64
2022/06/25 05:27:41;;;;;;;9.50;3.10;;;;;;;29.50;34.83;99780.63;105076;1274;73038;-69
2022/06/25 05:30:29;;;;;;;7.00;2.70;;;;;;;30.18;33.02;99784.36;104987;1274;60236;-65
2022/06/25 05:33:17;;;;;;;7.00;2.70;;;;;;;30.77;32.33;99781.88;104837;1274;61500;-69
2022/06/25 05:36:05;;;;;;;6.60;2.60;;;;;;;31.54;31.23;99785.05;104997;1274;74517;-68
2022/06/25 05:38:56;;;;;;;6.80;2.30;;;;;;;32.31;29.88;99785.66;105704;1274;65841;-69
2022/06/25 05:41:46;;;;;;;6.30;2.40;;;;;;;32.89;28.43;99781.13;105196;1274;73649;-70
2022/06/25 05:44:34;;;;;;;8.30;2.60;;;;;;;33.43;27.49;99782.55;105006;1274;59819;-69
2022/06/25 05:47:22;;;;;;;7.30;2.50;;;;;;;33.92;26.73;99779.42;104793;1274;60262;-70
2022/06/25 05:50:10;;;;;;;6.00;2.40;;;;;;;34.20;25.60;99775.83;105013;1274;72478;-73
2022/06/25 05:52:58;;;;;;;6.40;2.20;;;;;;;34.59;25.58;99770.91;104992;1274;69412;-72
2022/06/25 05:55:46;;;;;;;6.40;2.30;;;;;;;34.98;24.93;99771.00;104788;1274;74442;-70
2022/06/25 05:58:38;;;;;;;6.00;2.30;;;;;;;35.14;24.40;99776.16;105305;1274;59800;-71
2022/06/25 06:01:27;;;;;;;7.90;2.40;;;;;;;35.33;24.22;99784.36;104915;1275;61892;-70
2022/06/25 06:04:15;;;;;;;7.30;2.30;;;;;;;35.77;24.16;99785.97;104884;1274;71314;-70
2022/06/25 06:07:05;;;;;;;5.80;2.10;;;;;;;36.08;23.19;99782.88;105133;1274;69636;-71
2022/06/25 06:09:53;;;;;;;7.80;2.60;;;;;;;36.36;22.72;99784.75;104641;1274;73322;-71
2022/06/25 06:12:40;;;;;;;6.50;2.00;;;;;;;36.19;22.38;99787.77;104901;1274;59708;-69
2022/06/25 06:15:31;;;;;;;6.10;1.90;;;;;;;36.34;22.57;99782.79;104792;1274;60285;-69
2022/06/25 06:18:19;;;;;;;6.20;2.20;;;;;;;36.59;22.14;99787.75;105092;1274;73647;-69
2022/06/25 06:21:07;;;;;;;6.80;2.10;;;;;;;36.86;21.48;99785.29;104846;1274;67127;-72
2022/06/25 06:24:02;;;;;;;6.00;2.00;;;;;;;37.41;21.26;99786.72;104824;1274;74713;-71
2022/06/25 06:26:49;;;;;;;8.00;2.10;;;;;;;37.92;20.52;99789.74;104748;1274;59646;-70
2022/06/25 06:29:38;;;;;;;7.10;1.70;;;;;;;38.23;19.51;99793.23;104939;1274;60274;-69
2022/06/25 06:32:27;;;;;;;8.90;2.20;;;;;;;38.24;19.70;99799.36;105192;1274;72756;-72
2022/06/25 06:35:16;;;;;;;7.30;2.10;;;;;;;38.33;19.71;99796.91;105288;1274;67058;-73
2022/06/25 06:38:03;;;;;;;6.40;1.90;;;;;;;38.33;19.59;99795.02;104912;1274;73606;-70
2022/06/25 06:40:51;;;;;;;6.30;1.80;;;;;;;38.42;19.58;99793.65;104800;1274;59666;-70
2022/06/25 06:43:40;;;;;;;6.60;2.20;;;;;;;38.66;19.52;99793.61;105062;1274;59541;-70
2022/06/25 06:46:28;;;;;;;8.90;2.00;;;;;;;38.83;18.68;99797.50;105229;1272;74323;-70
2022/06/25 06:49:16;;;;;;;7.30;1.80;;;;;;;38.92;18.82;99796.23;104793;1274;68425;-70
2022/06/25 06:52:05;;;;;;;6.40;1.80;;;;;;;38.99;18.64;99794.76;104819;1273;71994;-68
2022/06/25 06:54:53;;;;;;;5.70;1.90;;;;;;;39.05;18.65;99789.52;104708;1274;59771;-69
2022/06/25 06:57:41;;;;;;;6.20;1.90;;;;;;;39.18;18.15;99795.02;104900;1274;59753;-70
2022/06/25 07:00:33;;;;;;;7.90;1.90;;;;;;;38.99;18.50;99796.17;105009;1274;73717;-74
2022/06/25 07:03:21;;;;;;;6.80;1.90;;;;;;;39.34;18.28;99795.13;105099;1274;66676;-69
2022/06/25 07:06:15;;;;;;;6.50;2.00;;;;;;;39.66;18.11;99792.55;104749;1274;72115;-69
2022/06/25 07:09:04;;;;;;;5.90;1.80;;;;;;;40.25;17.68;99796.16;105096;1274;59755;-72
2022/06/25 07:11:52;;;;;;;8.30;2.00;;;;;;;40.89;17.23;99797.23;105106;1274;59716;-70
2022/06/25 07:14:40;;;;;;;7.50;2.00;;;;;;;41.34;16.45;99796.48;105047;1274;73133;-71
2022/06/25 07:17:27;;;;;;;6.50;1.80;;;;;;;41.29;16.51;99798.27;104977;1274;67134;-71
2022/06/25 07:20:16;;;;;;;7.00;2.00;;;;;;;41.16;15.97;99794.30;105056;1274;73516;-69
2022/06/25 07:23:06;;;;;;;6.70;1.80;;;;;;;40.75;16.25;99792.58;104793;1274;59807;-69
2022/06/25 07:25:56;;;;;;;8.80;1.80;;;;;;;40.83;16.87;99785.23;104745;1274;59785;-71
2022/06/25 07:28:52;;;;;;;6.20;1.70;;;;;;;40.68;16.63;99790.05;105311;1274;73267;-72
2022/06/25 07:31:41;;;;;;;6.40;1.70;;;;;;;40.54;16.55;99786.86;105032;1274;69548;-70
2022/06/25 07:34:35;;;;;;;6.70;1.80;;;;;;;40.59;16.34;99787.77;105249;1274;73287;-68
2022/06/25 07:37:24;;;;;;;5.60;1.70;;;;;;;40.43;16.40;99783.30;105238;1274;59765;-71
2022/06/25 07:40:13;;;;;;;6.60;1.90;;;;;;;40.24;16.86;99786.89;105057;1274;59602;-70
2022/06/25 07:43:02;;;;;;;7.20;1.70;;;;;;;39.97;16.56;99783.81;104744;1274;74551;-70
2022/06/25 07:45:50;;;;;;;6.60;1.90;;;;;;;39.82;16.96;99786.98;104990;1274;69920;-74
2022/06/25 07:48:38;;;;;;;6.20;1.80;;;;;;;40.02;17.55;99788.63;104983;1274;73045;-71
2022/06/25 07:54:35;;;;;;;8.20;2.10;;;;;;;40.02;16.88;99793.05;105051;1274;60676;-71
2022/06/25 07:57:24;;;;;;;8.00;1.80;;;;;;;40.05;17.46;99787.58;104934;1274;73953;-72
2022/06/25 08:00:13;;;;;;;10.40;2.00;;;;;;;40.29;17.43;99788.77;105034;1274;66950;-72
2022/06/25 08:03:03;;;;;;;5.80;2.00;;;;;;;39.38;17.53;99794.64;104821;1274;71922;-70
2022/06/25 08:05:51;;;;;;;6.50;1.90;;;;;;;38.79;18.02;99799.32;105134;1274;59674;-73
2022/06/25 08:08:40;;;;;;;8.80;2.30;;;;;;;38.28;18.27;99802.88;105145;1274;60691;-75
2022/06/25 08:11:28;;;;;;;6.60;2.30;;;;;;;37.64;19.16;99798.94;105132;1274;74533;-74
2022/06/25 08:14:16;;;;;;;7.90;2.10;;;;;;;37.56;19.36;99798.85;104764;1274;69307;-71
2022/06/25 08:17:04;;;;;;;7.00;2.00;;;;;;;37.56;19.58;99799.20;105244;1273;73723;-70
2022/06/25 08:19:52;;;;;;;8.00;2.10;;;;;;;37.20;20.04;99802.20;105128;1274;59564;-70
2022/06/25 08:22:40;;;;;;;7.10;2.00;;;;;;;37.38;19.55;99801.38;104858;1273;59698;-70
2022/06/25 08:25:28;;;;;;;6.00;1.80;;;;;;;37.12;19.77;99797.35;104837;1274;73588;-70
2022/06/25 08:28:18;;;;;;;9.60;2.00;;;;;;;36.90;20.21;99809.86;104787;1274;68573;-72
2022/06/25 08:31:06;;;;;;;7.50;2.20;;;;;;;36.38;19.86;99806.83;104843;1274;73108;-71
2022/06/25 08:33:53;;;;;;;7.00;1.80;;;;;;;36.45;20.08;99806.02;104897;1274;59659;-72
2022/06/25 08:36:41;;;;;;;6.20;2.30;;;;;;;36.61;20.18;99808.38;105000;1273;59656;-70
2022/06/25 08:39:29;;;;;;;6.40;2.30;;;;;;;36.59;20.78;99807.70;105079;1274;74509;-71
2022/06/25 08:42:17;;;;;;;8.00;2.10;;;;;;;37.25;20.98;99804.45;104798;1274;66695;-70
2022/06/25 08:45:06;;;;;;;7.00;2.10;;;;;;;37.39;19.55;99807.56;104988;1274;72089;-72
2022/06/25 08:47:59;;;;;;;7.30;2.30;;;;;;;37.38;19.91;99808.30;105630;1274;59678;-72
2022/06/25 08:50:51;;;;;;;7.20;2.50;;;;;;;37.75;20.41;99803.52;104893;1274;59609;-70
2022/06/25 08:53:41;;;;;;;6.60;2.40;;;;;;;38.26;20.06;99801.33;104764;1274;73577;-76
2022/06/25 08:56:29;;;;;;;14.10;3.00;;;;;;;38.30;20.07;99800.86;104925;1274;69337;-70
2022/06/25 08:59:19;;;;;;;10.70;2.40;;;;;;;38.73;19.90;99802.52;104828;1274;74638;-72
2022/06/25 09:02:07;;;;;;;7.10;2.00;;;;;;;39.16;18.66;99808.38;104786;1274;59742;-71
2022/06/25 09:04:55;;;;;;;6.30;2.10;;;;;;;39.06;18.45;99797.16;104825;1274;59637;-71
2022/06/25 09:07:55;;;;;;;6.90;2.30;;;;;;;38.53;19.21;99799.73;105039;1274;72223;-71
2022/06/25 09:10:54;;;;;;;7.00;2.50;;;;;;;38.38;20.34;99794.73;105178;1274;69370;-69
2022/06/25 09:13:42;;;;;;;9.50;2.30;;;;;;;38.39;20.56;99794.16;104959;1274;74367;-72
2022/06/25 09:16:30;;;;;;;6.30;2.50;;;;;;;38.66;20.18;99794.50;106340;1274;59688;-70
2022/06/25 09:19:51;;;;;;;7.00;2.40;;;;;;;38.73;20.38;99790.73;106150;1274;61045;-68
2022/06/25 09:22:51;;;;;;;6.70;2.10;;;;;;;39.28;20.50;99789.77;105586;1281;74909;-72
2022/06/25 09:25:41;;;;;;;6.90;2.50;;;;;;;39.78;19.78;99789.73;105470;1279;66860;-74
2022/06/25 09:28:32;;;;;;;8.10;2.30;;;;;;;40.05;19.49;99792.64;104469;1280;73153;-71
2022/06/25 09:31:38;;;;;;;8.70;2.30;;;;;;;40.22;19.46;99792.42;104134;1283;59762;-71
2022/06/25 09:34:36;;;;;;;8.00;2.70;;;;;;;40.45;19.40;99796.00;104655;1279;60339;-71
2022/06/25 09:37:27;;;;;;;8.50;2.90;;;;;;;40.59;19.41;99792.09;104357;1280;74741;-72
2022/06/25 09:40:16;;;;;;;7.10;2.90;;;;;;;40.46;19.29;99790.61;104152;1281;68357;-72
2022/06/25 09:43:13;;;;;;;7.10;2.70;;;;;;;40.40;19.36;99786.91;104292;1280;73265;-72
2022/06/25 09:46:05;;;;;;;8.90;4.50;;;;;;;40.35;19.69;99788.11;104239;1280;59756;-71
2022/06/25 09:48:52;;;;;;;9.30;2.70;;;;;;;40.48;19.71;99786.60;104034;1281;59650;-73
2022/06/25 09:51:44;;;;;;;7.40;2.40;;;;;;;40.58;19.74;99782.98;104512;1279;74317;-73
2022/06/25 09:54:33;;;;;;;6.20;2.10;;;;;;;40.55;20.02;99780.93;104404;1281;68674;-75
2022/06/25 09:57:21;;;;;;;6.60;2.40;;;;;;;40.53;20.38;99772.64;104218;1280;71814;-73
2022/06/25 10:00:10;;;;;;;6.70;2.30;;;;;;;40.56;20.16;99773.55;104830;1273;59691;-69
2022/06/25 10:03:00;;;;;;;7.70;2.80;;;;;;;40.51;20.28;99780.40;104800;1274;61759;-70
2022/06/25 10:05:48;;;;;;;10.40;2.40;;;;;;;40.45;19.36;99777.36;105004;1274;73326;-71
2022/06/25 10:08:37;;;;;;;6.70;2.20;;;;;;;40.35;19.36;99779.32;104892;1274;69615;-69
2022/06/25 10:11:30;;;;;;;6.60;2.00;;;;;;;40.05;18.73;99779.27;104668;1274;72835;-69
2022/06/25 10:14:18;;;;;;;7.10;2.00;;;;;;;39.88;19.06;99783.80;104961;1274;59579;-75
2022/06/25 10:17:06;;;;;;;8.50;2.40;;;;;;;39.71;19.08;99788.42;104566;1274;60519;-70
2022/06/25 10:19:56;;;;;;;6.70;2.30;;;;;;;39.61;19.13;99784.61;104938;1274;74866;-70
2022/06/25 10:22:48;;;;;;;8.90;2.00;;;;;;;39.63;19.18;99786.06;104748;1273;66804;-74
2022/06/25 10:25:38;;;;;;;7.00;2.30;;;;;;;39.55;19.15;99790.02;104757;1274;72579;-70
2022/06/25 10:28:31;;;;;;;12.90;2.50;;;;;;;39.34;19.90;99777.48;104800;1274;59681;-70
2022/06/25 10:31:19;;;;;;;7.40;2.20;;;;;;;39.43;20.13;99782.97;104753;1274;60408;-72
2022/06/25 10:34:09;;;;;;;7.70;2.00;;;;;;;39.76;20.12;99781.59;104641;1274;73679;-72
2022/06/25 10:36:59;;;;;;;7.80;2.30;;;;;;;40.10;19.60;99783.05;104931;1271;69401;-72
2022/06/25 10:39:55;;;;;;;7.10;2.40;;;;;;;40.22;19.00;99780.96;104799;1273;74504;-69
2022/06/25 10:42:58;;;;;;;9.30;2.10;;;;;;;39.96;18.57;99784.41;104868;1274;59712;-69
2022/06/25 10:45:46;;;;;;;8.40;2.30;;;;;;;39.88;18.71;99780.69;104771;1273;59825;-69
2022/06/25 10:48:34;;;;;;;6.00;1.90;;;;;;;40.00;18.69;99782.45;104926;1274;75157;-70
2022/06/25 10:51:43;;;;;;;6.10;1.90;;;;;;;40.11;18.47;99775.75;104803;1274;69562;-69
2022/06/25 10:54:33;;;;;;;6.60;1.80;;;;;;;40.20;18.41;99779.37;104996;1274;73989;-67
2022/06/25 10:57:39;;;;;;;6.70;2.20;;;;;;;40.16;17.99;99778.05;104723;1274;60048;-69
2022/06/25 11:00:44;;;;;;;5.30;1.80;;;;;;;40.09;17.77;99778.69;104976;1274;59576;-67
2022/06/25 11:03:34;;;;;;;9.90;2.10;;;;;;;40.11;18.34;99775.99;104937;1273;73597;-69
2022/06/25 11:06:38;;;;;;;8.50;2.40;;;;;;;39.53;18.70;99773.63;105021;1274;68235;-69
2022/06/25 11:09:26;;;;;;;7.50;1.80;;;;;;;38.80;19.40;99771.42;104977;1273;73822;-69
2022/06/25 11:12:14;;;;;;;7.80;2.30;;;;;;;38.17;20.07;99773.46;104759;1274;59704;-69
2022/06/25 11:15:09;;;;;;;8.00;2.10;;;;;;;37.41;20.90;99770.23;104772;1274;60265;-71
2022/06/25 11:17:56;;;;;;;10.10;2.40;;;;;;;37.07;22.21;99771.08;104730;1274;74732;-71
2022/06/25 11:20:46;;;;;;;11.60;2.50;;;;;;;36.82;22.14;99771.27;104871;1274;66801;-69
2022/06/25 11:23:34;;;;;;;6.60;2.80;;;;;;;36.11;22.60;99771.60;104815;1274;72443;-71
2022/06/25 11:29:39;;;;;;;6.90;2.50;;;;;;;35.77;23.94;99771.45;104867;1274;60739;-71
2022/06/25 11:32:28;;;;;;;8.00;2.40;;;;;;;35.51;23.03;99770.68;105108;1274;74339;-70
2022/06/25 11:35:17;;;;;;;7.00;2.70;;;;;;;34.93;24.00;99769.37;106214;1273;68389;-70
2022/06/25 11:38:17;;;;;;;7.30;2.80;;;;;;;34.50;25.27;99776.05;104871;1274;71044;-71
2022/06/25 11:41:05;;;;;;;8.50;3.40;;;;;;;34.04;26.21;99770.10;104962;1273;59658;-71
2022/06/25 11:43:54;;;;;;;8.60;2.70;;;;;;;33.54;26.72;99773.65;104674;1273;60420;-70
2022/06/25 11:46:43;;;;;;;6.20;2.80;;;;;;;33.03;27.37;99770.44;105011;1272;74719;-71
2022/06/25 11:49:39;;;;;;;8.20;2.60;;;;;;;32.57;28.02;99769.82;104879;1274;66763;-70
2022/06/25 11:52:27;;;;;;;5.80;2.40;;;;;;;32.22;28.97;99766.04;105062;1273;73557;-71
2022/06/25 11:55:14;;;;;;;6.70;2.90;;;;;;;31.71;29.75;99771.20;104827;1274;59778;-70
2022/06/25 11:58:03;;;;;;;6.60;2.90;;;;;;;31.39;30.09;99772.08;104887;1274;60702;-70
2022/06/25 12:01:00;;;;;;;7.10;3.00;;;;;;;31.17;30.79;99769.84;104816;1274;74167;-70
2022/06/25 12:03:48;;;;;;;8.40;2.70;;;;;;;30.88;31.11;99760.45;104794;1274;69358;-70
2022/06/25 12:06:36;;;;;;;7.10;2.90;;;;;;;30.53;31.27;99774.67;105077;1274;74159;-64
2022/06/25 12:09:26;;;;;;;10.30;3.50;;;;;;;30.39;33.04;99773.29;105510;1274;59656;-68
2022/06/25 12:12:15;;;;;;;13.30;10.00;;;;;;;30.25;33.37;99777.09;105292;1273;61342;-78
2022/06/25 12:15:04;;;;;;;9.40;4.40;;;;;;;30.10;33.36;99789.42;105076;1274;73682;-71
2022/06/25 12:18:03;;;;;;;13.20;7.80;;;;;;;29.95;33.65;99785.98;105134;1274;69525;-65
2022/06/25 12:20:58;;;;;;;8.40;3.20;;;;;;;29.79;33.69;99791.08;104885;1273;73475;-61
2022/06/25 12:23:50;;;;;;;10.70;4.00;;;;;;;29.64;34.36;99791.03;104734;1274;59808;-62
2022/06/25 12:26:41;;;;;;;8.70;5.50;;;;;;;29.60;34.20;99790.98;105038;1274;61838;-63
2022/06/25 12:29:36;;;;;;;8.20;3.60;;;;;;;29.57;34.46;99784.79;104658;1274;74102;-68
2022/06/25 12:32:43;;;;;;;8.90;4.10;;;;;;;29.39;34.11;99789.35;104681;1274;68647;-69
2022/06/25 12:35:33;;;;;;;6.70;2.80;;;;;;;29.14;34.71;99796.80;104760;1274;72828;-62
2022/06/25 12:38:21;;;;;;;9.90;6.50;;;;;;;29.02;35.63;99795.03;104884;1274;59741;-62
2022/06/25 12:41:09;;;;;;;6.90;2.90;;;;;;;29.02;35.32;99793.11;104991;1273;59688;-64
2022/06/25 12:43:57;;;;;;;6.40;2.80;;;;;;;28.90;35.26;99790.99;105915;1273;73572;-66
2022/06/25 12:47:06;;;;;;;9.20;4.10;;;;;;;28.72;35.73;99793.03;106414;1273;69122;-70
2022/06/25 12:49:57;;;;;;;6.70;2.90;;;;;;;28.66;35.03;99788.34;105737;1273;74448;-73
2022/06/25 12:52:45;;;;;;;5.90;2.50;;;;;;;28.71;35.01;99792.73;105233;1273;59512;-70
2022/06/25 12:55:33;;;;;;;6.40;2.70;;;;;;;28.74;35.32;99791.91;104690;1273;59730;-66
2022/06/25 12:58:21;;;;;;;7.50;2.90;;;;;;;28.70;35.52;99794.52;104774;1273;73521;-72
2022/06/25 13:01:23;;;;;;;9.80;3.50;;;;;;;28.59;35.26;99786.67;104832;1273;65729;-69
2022/06/25 13:04:11;;;;;;;6.90;2.80;;;;;;;28.53;35.82;99788.33;105168;1273;72341;-69
2022/06/25 13:06:59;;;;;;;10.20;3.10;;;;;;;28.47;35.31;99787.52;104871;1273;59743;-63
2022/06/25 13:09:49;;;;;;;7.10;3.20;;;;;;;28.44;35.69;99783.63;104723;1273;60265;-63
2022/06/25 13:12:45;;;;;;;6.60;2.90;;;;;;;28.50;36.43;99784.38;105226;1273;73046;-71
2022/06/25 13:15:34;;;;;;;6.40;2.70;;;;;;;28.50;36.21;99792.00;104763;1273;68192;-71
2022/06/25 13:18:22;;;;;;;6.70;2.80;;;;;;;28.43;35.98;99785.63;104743;1274;73967;-70
2022/06/25 13:21:13;;;;;;;6.40;2.60;;;;;;;28.44;35.76;99790.94;104828;1274;59548;-65
2022/06/25 13:24:01;;;;;;;7.50;2.80;;;;;;;28.47;35.77;99789.92;104728;1274;59729;-66
2022/06/25 13:26:49;;;;;;;7.90;2.80;;;;;;;28.56;35.73;99795.07;104894;1274;73455;-67
2022/06/25 13:29:37;;;;;;;7.90;3.00;;;;;;;28.58;35.85;99794.10;104859;1273;68534;-67